X  Fermer Données météorologiques d'aviation de Metar     LFPN Toussus-le-Noble Airport
Température
24°C Température
14°C Point de rosée
54% Humidité



Vent
3 KM/H
2 MPH
1 M/S
2 KTS



90°
E
Conditions actuelles

Clair Clair
Pression 1018.96 (hPa) - 30.09 (inHg)
Visibilité 6 (mile) - 9.7 (km)
Aéroport
Code de l'aéroport LFPN

Emplacement: Toussus-le-Noble Airport
Distance: 14 (km)

Metar:
LFPN 182000Z AUTO 09002KT CAVOK 24/14 Q1019 NOSIG

Temps: 18-07-2024 22:00 CEST